Time;durP1;ratioP1;P1;durP2;ratioP2;P2;SDS_P1;SDS_P2;PMS_P1;PMS_P2;Temp;Humidity;BMP_temperature;BMP_pressure;BME280_temperature;BME280_humidity;BME280_pressure;Samples;Min_cycle;Max_cycle;Signal;HPM_P1;HPM_P2
2021/04/30 00:00:14;;;;;;;11.27;10.27;;;;;;;;;;4996700;28;20248;-45
2021/04/30 00:02:41;;;;;;;12.23;11.23;;;;;;;;;;5009112;28;20173;-45
2021/04/30 00:05:07;;;;;;;12.37;11.27;;;;;;;;;;5008102;28;20631;-45
2021/04/30 00:07:32;;;;;;;11.63;10.63;;;;;;;;;;5008405;28;20615;-45
2021/04/30 00:09:57;;;;;;;11.63;10.63;;;;;;;;;;5009563;28;20207;-45
2021/04/30 00:12:22;;;;;;;11.87;10.93;;;;;;;;;;5009026;28;20236;-45
2021/04/30 00:14:47;;;;;;;11.48;10.48;;;;;;;;;;5008301;28;20181;-44
2021/04/30 00:17:13;;;;;;;11.37;10.57;;;;;;;;;;5007529;28;20191;-45
2021/04/30 00:19:38;;;;;;;11.83;10.83;;;;;;;;;;5008526;28;20860;-44
2021/04/30 00:22:03;;;;;;;11.50;10.55;;;;;;;;;;5009092;28;20174;-45
2021/04/30 00:24:28;;;;;;;12.20;11.03;;;;;;;;;;5008686;28;20685;-44
2021/04/30 00:26:53;;;;;;;11.13;10.07;;;;;;;;;;5007734;28;20273;-45
2021/04/30 00:29:18;;;;;;;12.43;11.33;;;;;;;;;;5009067;28;20307;-44
2021/04/30 00:31:44;;;;;;;11.27;10.38;;;;;;;;;;5009646;28;20187;-45
2021/04/30 00:34:09;;;;;;;10.87;9.93;;;;;;;;;;5007890;28;20198;-45
2021/04/30 00:36:34;;;;;;;13.10;11.90;;;;;;;;;;5009043;28;20208;-45
2021/04/30 00:39:00;;;;;;;13.70;12.30;;;;;;;;;;5008973;28;20196;-44
2021/04/30 00:41:25;;;;;;;12.03;11.03;;;;;;;;;;4994992;28;20183;-45
2021/04/30 00:43:50;;;;;;;12.03;11.03;;;;;;;;;;5007992;28;20187;-45
2021/04/30 00:46:15;;;;;;;13.17;12.00;;;;;;;;;;5004132;28;20279;-45
2021/04/30 00:48:41;;;;;;;12.88;11.77;;;;;;;;;;5002195;28;20659;-45
2021/04/30 00:51:06;;;;;;;13.40;12.20;;;;;;;;;;5002789;28;20212;-45
2021/04/30 00:53:31;;;;;;;13.13;12.03;;;;;;;;;;4989605;28;20252;-45
2021/04/30 00:55:56;;;;;;;12.67;11.47;;;;;;;;;;5004024;28;20213;-45
2021/04/30 00:58:22;;;;;;;13.33;12.03;;;;;;;;;;5008878;28;20269;-45
2021/04/30 01:00:47;;;;;;;13.47;12.17;;;;;;;;;;5006872;28;20843;-45
2021/04/30 01:03:12;;;;;;;14.20;13.00;;;;;;;;;;5007501;28;20180;-45
2021/04/30 01:05:38;;;;;;;13.07;11.87;;;;;;;;;;5003286;28;20541;-44
2021/04/30 01:08:04;;;;;;;13.93;12.53;;;;;;;;;;5003458;28;20183;-45
2021/04/30 01:10:29;;;;;;;14.00;12.80;;;;;;;;;;5006973;28;20229;-45
2021/04/30 01:12:54;;;;;;;14.73;13.43;;;;;;;;;;5005770;28;20689;-44
2021/04/30 01:15:19;;;;;;;13.73;12.57;;;;;;;;;;5001237;28;20279;-45
2021/04/30 01:17:45;;;;;;;13.40;12.30;;;;;;;;;;5006845;28;20337;-45
2021/04/30 01:20:11;;;;;;;14.23;12.90;;;;;;;;;;5000769;28;20183;-45
2021/04/30 01:22:41;;;;;;;14.00;12.80;;;;;;;;;;5008618;28;20309;-45
2021/04/30 01:25:11;;;;;;;14.53;13.13;;;;;;;;;;5005299;28;20596;-44
2021/04/30 01:27:37;;;;;;;14.77;13.43;;;;;;;;;;4998130;28;21082;-45
2021/04/30 01:30:03;;;;;;;13.50;12.30;;;;;;;;;;5004821;28;20725;-45
2021/04/30 01:32:28;;;;;;;14.53;13.33;;;;;;;;;;4996856;28;20223;-44
2021/04/30 01:34:54;;;;;;;13.97;12.77;;;;;;;;;;5008093;28;21062;-44
2021/04/30 01:37:19;;;;;;;13.87;12.67;;;;;;;;;;5007806;28;20169;-44
2021/04/30 01:39:44;;;;;;;13.83;12.60;;;;;;;;;;4989855;28;20221;-44
2021/04/30 01:42:10;;;;;;;15.17;13.67;;;;;;;;;;5008169;28;20232;-44
2021/04/30 01:44:36;;;;;;;13.83;12.63;;;;;;;;;;5007893;28;20190;-44
2021/04/30 01:47:01;;;;;;;14.57;13.23;;;;;;;;;;5000112;28;20617;-45
2021/04/30 01:49:26;;;;;;;14.73;13.30;;;;;;;;;;5006601;28;20271;-44
2021/04/30 01:51:52;;;;;;;13.27;12.07;;;;;;;;;;4990657;28;20435;-43
2021/04/30 01:54:17;;;;;;;15.93;14.53;;;;;;;;;;5005811;28;20748;-44
2021/04/30 01:56:43;;;;;;;15.80;14.27;;;;;;;;;;5004201;28;20685;-44
2021/04/30 01:59:08;;;;;;;15.03;13.63;;;;;;;;;;5001064;28;20176;-45
2021/04/30 02:01:33;;;;;;;16.27;14.67;;;;;;;;;;5004048;28;20196;-44
2021/04/30 02:03:59;;;;;;;15.77;14.27;;;;;;;;;;4999178;28;20180;-44
2021/04/30 02:06:24;;;;;;;15.20;13.80;;;;;;;;;;5007500;28;20182;-45
2021/04/30 02:08:50;;;;;;;14.87;13.57;;;;;;;;;;4999428;28;20664;-44
2021/04/30 02:11:15;;;;;;;16.30;14.70;;;;;;;;;;5007208;28;20199;-45
2021/04/30 02:13:41;;;;;;;15.38;13.98;;;;;;;;;;5008898;28;20613;-44
2021/04/30 02:16:06;;;;;;;15.70;14.20;;;;;;;;;;4998505;28;20206;-44
2021/04/30 02:18:31;;;;;;;14.50;13.20;;;;;;;;;;4992881;28;20782;-44
2021/04/30 02:20:56;;;;;;;14.90;13.60;;;;;;;;;;5011046;28;20182;-44
2021/04/30 02:23:22;;;;;;;15.37;13.97;;;;;;;;;;5011989;28;20599;-45
2021/04/30 02:25:47;;;;;;;14.70;13.23;;;;;;;;;;5010345;28;20677;-45
2021/04/30 02:28:13;;;;;;;15.30;13.90;;;;;;;;;;5011266;28;20181;-45
2021/04/30 02:30:39;;;;;;;14.87;13.50;;;;;;;;;;5008035;28;20239;-45
2021/04/30 02:33:05;;;;;;;15.00;13.60;;;;;;;;;;5002867;28;20186;-44
2021/04/30 02:35:32;;;;;;;15.30;13.80;;;;;;;;;;5004115;28;20716;-45
2021/04/30 02:37:57;;;;;;;15.27;13.77;;;;;;;;;;5009388;28;20174;-44
2021/04/30 02:40:25;;;;;;;15.53;13.93;;;;;;;;;;5009175;28;20665;-44
2021/04/30 02:42:50;;;;;;;14.70;13.30;;;;;;;;;;4995289;28;20272;-45
2021/04/30 02:45:16;;;;;;;14.73;13.43;;;;;;;;;;5003910;28;20665;-43
2021/04/30 02:47:45;;;;;;;16.63;13.63;;;;;;;;;;5007358;28;20653;-44
2021/04/30 02:50:10;;;;;;;14.70;13.30;;;;;;;;;;5009873;28;20197;-44
2021/04/30 02:52:36;;;;;;;15.20;13.87;;;;;;;;;;5006927;28;20740;-43
2021/04/30 02:55:01;;;;;;;15.48;13.93;;;;;;;;;;5000650;28;20184;-44
2021/04/30 02:57:29;;;;;;;15.90;14.50;;;;;;;;;;5009916;28;20185;-44
2021/04/30 02:59:55;;;;;;;15.63;14.13;;;;;;;;;;5010625;28;20165;-44
2021/04/30 03:02:20;;;;;;;15.48;13.98;;;;;;;;;;5008414;28;20666;-44
2021/04/30 03:04:45;;;;;;;13.70;12.48;;;;;;;;;;5010774;28;20197;-44
2021/04/30 03:07:10;;;;;;;14.83;13.43;;;;;;;;;;4997854;28;20184;-44
2021/04/30 03:09:35;;;;;;;14.18;12.93;;;;;;;;;;5011259;28;20544;-44
2021/04/30 03:12:01;;;;;;;14.55;13.25;;;;;;;;;;5005386;28;20218;-44
2021/04/30 03:14:26;;;;;;;16.13;14.43;;;;;;;;;;4993956;28;20211;-44
2021/04/30 03:16:51;;;;;;;14.43;13.03;;;;;;;;;;5009526;28;20214;-43
2021/04/30 03:19:16;;;;;;;15.77;14.20;;;;;;;;;;5009486;28;20337;-48
2021/04/30 03:21:41;;;;;;;15.23;13.73;;;;;;;;;;5010464;28;20664;-43
2021/04/30 03:24:07;;;;;;;14.80;13.50;;;;;;;;;;5009110;28;20235;-43
2021/04/30 03:26:32;;;;;;;14.47;13.03;;;;;;;;;;5008713;28;20180;-44
2021/04/30 03:28:57;;;;;;;15.70;14.20;;;;;;;;;;5009821;28;20328;-44
2021/04/30 03:31:22;;;;;;;14.70;13.23;;;;;;;;;;5007683;28;20181;-43
2021/04/30 03:33:48;;;;;;;14.50;13.00;;;;;;;;;;5008881;28;20221;-43
2021/04/30 03:36:13;;;;;;;15.60;14.03;;;;;;;;;;5009085;28;20273;-44
2021/04/30 03:38:38;;;;;;;15.70;13.95;;;;;;;;;;5010119;28;20162;-44
2021/04/30 03:41:03;;;;;;;15.80;14.40;;;;;;;;;;5008598;28;20738;-44
2021/04/30 03:43:28;;;;;;;15.33;13.87;;;;;;;;;;5010698;28;20174;-44
2021/04/30 03:45:54;;;;;;;15.03;13.67;;;;;;;;;;5002413;28;20220;-45
2021/04/30 03:48:20;;;;;;;16.47;14.97;;;;;;;;;;5001804;28;20181;-45
2021/04/30 03:50:45;;;;;;;14.00;12.80;;;;;;;;;;5000115;28;20183;-45
2021/04/30 03:53:11;;;;;;;16.63;14.90;;;;;;;;;;5001323;28;20670;-44
2021/04/30 03:55:36;;;;;;;14.93;13.43;;;;;;;;;;5003364;28;20670;-44
2021/04/30 03:58:01;;;;;;;16.60;14.90;;;;;;;;;;5005705;28;20238;-44
2021/04/30 04:00:26;;;;;;;15.70;14.30;;;;;;;;;;5005382;28;20282;-44
2021/04/30 04:02:51;;;;;;;16.40;14.70;;;;;;;;;;5006128;28;20459;-44
2021/04/30 04:05:17;;;;;;;15.65;14.23;;;;;;;;;;5004942;28;20190;-44
2021/04/30 04:07:42;;;;;;;16.73;14.93;;;;;;;;;;5003244;28;20176;-43
2021/04/30 04:10:07;;;;;;;15.93;14.37;;;;;;;;;;5008809;28;20291;-44
2021/04/30 04:12:32;;;;;;;16.87;15.27;;;;;;;;;;4999296;28;20234;-44
2021/04/30 04:14:58;;;;;;;16.90;15.30;;;;;;;;;;5008014;28;20258;-45
2021/04/30 04:17:23;;;;;;;15.90;14.30;;;;;;;;;;5003622;28;20692;-45
2021/04/30 04:19:48;;;;;;;15.95;14.40;;;;;;;;;;5006217;28;20173;-44
2021/04/30 04:22:14;;;;;;;15.03;13.40;;;;;;;;;;5000401;28;20186;-44
2021/04/30 04:24:39;;;;;;;16.70;15.00;;;;;;;;;;5008831;28;20721;-44
2021/04/30 04:27:05;;;;;;;14.90;13.50;;;;;;;;;;5002900;28;20289;-45
2021/04/30 04:29:30;;;;;;;15.20;13.60;;;;;;;;;;5002801;28;20202;-44
2021/04/30 04:31:55;;;;;;;15.07;13.48;;;;;;;;;;5006519;28;20192;-44
2021/04/30 04:34:20;;;;;;;15.30;13.90;;;;;;;;;;5006022;28;20174;-44
2021/04/30 04:36:45;;;;;;;15.37;13.80;;;;;;;;;;4996661;28;20264;-44
2021/04/30 04:39:11;;;;;;;15.38;13.88;;;;;;;;;;4992649;28;20184;-45
2021/04/30 04:41:36;;;;;;;14.40;13.10;;;;;;;;;;5005300;28;20205;-44
2021/04/30 04:44:01;;;;;;;14.63;13.23;;;;;;;;;;4991988;28;20538;-44
2021/04/30 04:46:26;;;;;;;15.20;13.70;;;;;;;;;;5006052;28;20240;-44
2021/04/30 04:48:51;;;;;;;14.60;13.30;;;;;;;;;;5004269;28;20289;-44
2021/04/30 04:51:16;;;;;;;16.98;15.18;;;;;;;;;;5004392;28;20187;-44
2021/04/30 04:53:42;;;;;;;18.87;14.70;;;;;;;;;;5005431;28;20189;-44
2021/04/30 04:56:07;;;;;;;16.90;15.05;;;;;;;;;;5001571;28;20210;-44
2021/04/30 04:58:32;;;;;;;16.73;15.13;;;;;;;;;;4994249;28;20662;-44
2021/04/30 05:00:59;;;;;;;15.97;14.47;;;;;;;;;;4993334;28;20224;-44
2021/04/30 05:03:24;;;;;;;16.83;15.27;;;;;;;;;;5001669;28;20189;-45
2021/04/30 05:05:49;;;;;;;15.47;14.03;;;;;;;;;;4990717;28;20593;-45
2021/04/30 05:08:14;;;;;;;15.77;14.27;;;;;;;;;;4998858;28;20185;-44
2021/04/30 05:10:40;;;;;;;19.02;14.55;;;;;;;;;;5001293;28;20198;-43
2021/04/30 05:13:05;;;;;;;14.97;13.57;;;;;;;;;;4997111;28;20233;-44
2021/04/30 05:15:30;;;;;;;15.77;14.25;;;;;;;;;;4994226;28;20201;-44
2021/04/30 05:17:55;;;;;;;17.00;15.20;;;;;;;;;;4998215;28;20174;-45
2021/04/30 05:20:20;;;;;;;15.70;14.13;;;;;;;;;;4997972;28;20171;-45
2021/04/30 05:22:46;;;;;;;16.77;15.17;;;;;;;;;;4991896;28;20181;-44
2021/04/30 05:25:12;;;;;;;17.93;16.23;;;;;;;;;;4988156;28;20174;-44
2021/04/30 05:27:41;;;;;;;15.70;14.20;;;;;;;;;;4981647;28;20179;-47
2021/04/30 05:30:07;;;;;;;17.13;15.53;;;;;;;;;;5003441;28;20637;-43
2021/04/30 05:32:32;;;;;;;14.80;13.50;;;;;;;;;;5002541;28;21172;-44
2021/04/30 05:34:59;;;;;;;16.73;15.23;;;;;;;;;;4999547;28;20586;-44
2021/04/30 05:37:24;;;;;;;15.50;14.03;;;;;;;;;;4999047;28;20197;-45
2021/04/30 05:39:49;;;;;;;15.80;14.50;;;;;;;;;;4999466;28;20612;-45
2021/04/30 05:42:14;;;;;;;17.37;15.67;;;;;;;;;;5000718;28;20167;-45
2021/04/30 05:44:40;;;;;;;16.50;14.85;;;;;;;;;;5003427;28;20173;-45
2021/04/30 05:47:05;;;;;;;17.15;15.45;;;;;;;;;;5002090;28;20179;-45
2021/04/30 05:49:30;;;;;;;17.60;15.90;;;;;;;;;;5004896;28;20673;-45
2021/04/30 05:51:55;;;;;;;16.27;14.67;;;;;;;;;;5001903;28;20195;-45
2021/04/30 05:54:21;;;;;;;16.73;15.10;;;;;;;;;;4996973;28;20201;-45
2021/04/30 05:56:46;;;;;;;17.30;15.80;;;;;;;;;;4994412;28;20748;-43
2021/04/30 05:59:11;;;;;;;16.70;15.10;;;;;;;;;;5000395;28;20177;-43
2021/04/30 06:01:36;;;;;;;18.23;16.63;;;;;;;;;;4989988;28;20209;-44
2021/04/30 06:04:02;;;;;;;16.07;14.67;;;;;;;;;;5001581;28;20170;-44
2021/04/30 06:06:27;;;;;;;16.47;15.00;;;;;;;;;;4988904;28;20212;-44
2021/04/30 06:08:52;;;;;;;17.97;16.17;;;;;;;;;;4996915;28;20593;-44
2021/04/30 06:11:17;;;;;;;17.17;15.67;;;;;;;;;;5002371;28;20519;-45
2021/04/30 06:13:42;;;;;;;16.73;15.13;;;;;;;;;;5012211;28;20176;-45
2021/04/30 06:16:07;;;;;;;16.67;15.02;;;;;;;;;;5011993;28;20213;-45
2021/04/30 06:18:33;;;;;;;15.57;14.17;;;;;;;;;;5007458;28;20647;-45
2021/04/30 06:20:58;;;;;;;16.70;15.20;;;;;;;;;;5008544;28;20193;-44
2021/04/30 06:23:23;;;;;;;16.33;15.00;;;;;;;;;;5011164;28;20186;-43
2021/04/30 06:25:48;;;;;;;16.87;15.20;;;;;;;;;;5011221;28;20639;-43
2021/04/30 06:28:13;;;;;;;15.13;13.70;;;;;;;;;;5011064;28;20185;-43
2021/04/30 06:30:39;;;;;;;15.90;14.20;;;;;;;;;;5011467;28;20183;-46
2021/04/30 06:33:07;;;;;;;16.00;14.37;;;;;;;;;;5015966;28;20669;-44
2021/04/30 06:35:32;;;;;;;14.17;12.97;;;;;;;;;;5010888;28;20200;-43
2021/04/30 06:37:57;;;;;;;16.20;14.77;;;;;;;;;;5011460;28;20835;-45
2021/04/30 06:40:22;;;;;;;15.75;14.25;;;;;;;;;;5010360;28;20185;-46
2021/04/30 06:42:47;;;;;;;15.67;14.03;;;;;;;;;;5000742;28;20174;-45
2021/04/30 06:45:13;;;;;;;16.40;14.97;;;;;;;;;;4994846;28;20777;-44
2021/04/30 06:47:38;;;;;;;15.83;14.23;;;;;;;;;;4993032;28;20178;-44
2021/04/30 06:50:03;;;;;;;16.13;14.57;;;;;;;;;;4998609;28;20189;-45
2021/04/30 06:52:28;;;;;;;14.90;13.50;;;;;;;;;;4993318;28;20546;-45
2021/04/30 06:54:54;;;;;;;15.73;14.32;;;;;;;;;;4993909;28;20275;-45
2021/04/30 06:57:19;;;;;;;14.70;13.30;;;;;;;;;;5002696;28;20278;-45
2021/04/30 06:59:44;;;;;;;15.27;13.88;;;;;;;;;;5007616;28;20233;-44
2021/04/30 07:02:09;;;;;;;14.13;12.90;;;;;;;;;;4993534;28;20731;-45
2021/04/30 07:04:35;;;;;;;14.83;13.37;;;;;;;;;;4999949;28;20182;-45
2021/04/30 07:07:01;;;;;;;15.17;13.90;;;;;;;;;;4991900;28;20205;-45
2021/04/30 07:09:26;;;;;;;14.47;13.13;;;;;;;;;;4997730;28;20268;-45
2021/04/30 07:11:51;;;;;;;15.52;14.05;;;;;;;;;;4983401;28;20748;-45
2021/04/30 07:14:16;;;;;;;16.95;15.38;;;;;;;;;;4995659;28;20560;-43
2021/04/30 07:16:41;;;;;;;15.73;14.32;;;;;;;;;;5003035;28;20210;-44
2021/04/30 07:19:06;;;;;;;15.17;13.73;;;;;;;;;;5001233;28;20178;-45
2021/04/30 07:21:32;;;;;;;15.15;13.75;;;;;;;;;;5002403;28;20261;-44
2021/04/30 07:23:57;;;;;;;15.97;14.43;;;;;;;;;;5006170;28;20213;-44
2021/04/30 07:26:22;;;;;;;16.30;14.90;;;;;;;;;;5006097;28;20582;-45
2021/04/30 07:28:47;;;;;;;15.87;14.47;;;;;;;;;;5003897;28;20304;-45
2021/04/30 07:31:12;;;;;;;16.53;14.87;;;;;;;;;;5004567;28;20165;-45
2021/04/30 07:33:43;;;;;;;14.80;13.40;;;;;;;;;;5001903;28;20181;-45
2021/04/30 07:36:08;;;;;;;13.87;12.67;;;;;;;;;;5005950;28;20201;-45
2021/04/30 07:38:33;;;;;;;14.13;12.83;;;;;;;;;;5005608;28;20612;-45
2021/04/30 07:40:59;;;;;;;14.00;12.80;;;;;;;;;;5004315;28;20987;-44
2021/04/30 07:43:24;;;;;;;13.52;12.32;;;;;;;;;;5005428;28;20177;-44
2021/04/30 07:45:49;;;;;;;16.27;14.63;;;;;;;;;;5001975;28;20182;-45
2021/04/30 07:48:14;;;;;;;15.97;14.57;;;;;;;;;;5000079;28;20540;-45
2021/04/30 07:50:40;;;;;;;14.57;13.37;;;;;;;;;;5001766;28;20236;-46
2021/04/30 07:53:05;;;;;;;15.77;14.37;;;;;;;;;;5003481;28;20284;-44
2021/04/30 07:55:31;;;;;;;15.20;13.80;;;;;;;;;;5005380;28;20261;-44
2021/04/30 07:57:56;;;;;;;12.90;11.80;;;;;;;;;;5003387;28;20261;-44
2021/04/30 08:00:21;;;;;;;14.68;13.40;;;;;;;;;;5003471;28;20200;-44
2021/04/30 08:02:49;;;;;;;15.60;14.10;;;;;;;;;;4999940;28;20271;-45
2021/04/30 08:05:15;;;;;;;15.43;14.03;;;;;;;;;;4999826;28;20663;-44
2021/04/30 08:07:42;;;;;;;14.77;13.47;;;;;;;;;;5001396;28;20708;-47
2021/04/30 08:10:07;;;;;;;13.93;12.73;;;;;;;;;;5005506;28;20219;-46
2021/04/30 08:12:32;;;;;;;14.00;12.70;;;;;;;;;;5005213;28;21002;-45
2021/04/30 08:14:58;;;;;;;14.07;12.90;;;;;;;;;;4999745;28;20217;-45
2021/04/30 08:17:23;;;;;;;15.20;13.80;;;;;;;;;;4999920;28;20203;-44
2021/04/30 08:19:48;;;;;;;15.00;13.70;;;;;;;;;;5000139;28;20170;-45
2021/04/30 08:22:13;;;;;;;16.77;15.20;;;;;;;;;;5005630;28;20273;-45
2021/04/30 08:24:38;;;;;;;17.00;15.27;;;;;;;;;;5005481;28;20170;-45
2021/04/30 08:27:04;;;;;;;16.70;15.30;;;;;;;;;;5000087;28;20205;-45
2021/04/30 08:29:29;;;;;;;17.40;15.80;;;;;;;;;;5000419;28;20865;-44
2021/04/30 08:31:54;;;;;;;16.50;15.00;;;;;;;;;;5001832;28;20166;-45
2021/04/30 08:34:19;;;;;;;17.08;15.50;;;;;;;;;;5005193;28;20209;-44
2021/04/30 08:36:44;;;;;;;16.33;14.93;;;;;;;;;;5001504;28;20364;-44
2021/04/30 08:39:10;;;;;;;15.53;14.07;;;;;;;;;;5002086;28;20178;-44
2021/04/30 08:41:36;;;;;;;16.03;14.53;;;;;;;;;;4999852;28;20252;-48
2021/04/30 08:44:02;;;;;;;17.30;15.70;;;;;;;;;;5000983;28;20676;-45
2021/04/30 08:46:27;;;;;;;17.20;15.40;;;;;;;;;;5004726;28;20628;-44
2021/04/30 08:48:53;;;;;;;15.80;14.40;;;;;;;;;;5001898;28;21174;-43
2021/04/30 08:51:18;;;;;;;15.97;14.63;;;;;;;;;;4999266;28;20210;-44
2021/04/30 08:53:44;;;;;;;16.90;15.50;;;;;;;;;;4998799;28;20658;-45
2021/04/30 08:56:09;;;;;;;16.57;15.07;;;;;;;;;;5003769;28;20632;-45
2021/04/30 08:58:36;;;;;;;17.07;15.57;;;;;;;;;;5005012;28;20213;-44
2021/04/30 09:01:01;;;;;;;14.43;13.23;;;;;;;;;;5001261;28;20807;-44
2021/04/30 09:03:27;;;;;;;16.97;15.47;;;;;;;;;;4998921;28;20608;-44
2021/04/30 09:05:56;;;;;;;16.30;14.70;;;;;;;;;;4999636;28;20170;-45
2021/04/30 09:08:23;;;;;;;15.83;14.43;;;;;;;;;;5002978;28;20193;-44
2021/04/30 09:10:50;;;;;;;16.20;14.80;;;;;;;;;;5002947;28;20608;-44
2021/04/30 09:13:17;;;;;;;16.50;15.00;;;;;;;;;;5000202;28;20659;-45
2021/04/30 09:15:43;;;;;;;17.87;16.27;;;;;;;;;;4994630;28;20741;-45
2021/04/30 09:18:15;;;;;;;18.07;16.50;;;;;;;;;;4994492;28;20601;-45
2021/04/30 09:20:40;;;;;;;17.13;15.73;;;;;;;;;;5000591;28;20564;-45
2021/04/30 09:23:24;;;;;;;16.93;15.43;;;;;;;;;;4993475;28;21123;-45
2021/04/30 09:25:49;;;;;;;15.70;14.40;;;;;;;;;;5002337;28;20187;-47
2021/04/30 09:28:15;;;;;;;15.35;14.13;;;;;;;;;;5001263;28;20652;-44
2021/04/30 09:30:40;;;;;;;17.35;15.95;;;;;;;;;;5000269;28;20173;-44
2021/04/30 09:33:07;;;;;;;16.93;15.43;;;;;;;;;;4999595;28;20171;-45
2021/04/30 09:35:42;;;;;;;18.43;16.57;;;;;;;;;;4999210;28;20202;-44
2021/04/30 09:38:23;;;;;;;17.47;16.03;;;;;;;;;;5004062;28;20630;-45
2021/04/30 09:40:49;;;;;;;15.23;13.93;;;;;;;;;;5002910;28;20593;-45
2021/04/30 09:43:15;;;;;;;14.43;13.33;;;;;;;;;;4998934;28;20598;-45
2021/04/30 09:45:41;;;;;;;14.97;13.77;;;;;;;;;;5000428;28;20604;-45
2021/04/30 09:48:07;;;;;;;15.10;13.70;;;;;;;;;;5000950;28;20619;-45
2021/04/30 09:50:32;;;;;;;15.30;14.00;;;;;;;;;;5000363;28;20186;-45
2021/04/30 09:53:02;;;;;;;15.10;13.80;;;;;;;;;;5001509;28;21373;-45
2021/04/30 09:55:47;;;;;;;15.97;14.70;;;;;;;;;;5003737;28;20299;-44
2021/04/30 09:58:13;;;;;;;14.57;13.43;;;;;;;;;;5003930;28;21051;-45
2021/04/30 10:00:38;;;;;;;14.50;13.40;;;;;;;;;;5002279;28;20674;-45
2021/04/30 10:03:20;;;;;;;13.53;12.40;;;;;;;;;;4998134;28;20195;-45
2021/04/30 10:05:59;;;;;;;14.37;13.27;;;;;;;;;;4999624;28;20177;-44
2021/04/30 10:08:24;;;;;;;14.00;12.90;;;;;;;;;;4998256;28;20603;-44
2021/04/30 10:10:49;;;;;;;14.60;13.40;;;;;;;;;;5003697;28;21220;-45
2021/04/30 10:13:14;;;;;;;15.40;14.20;;;;;;;;;;5003729;28;20221;-44
2021/04/30 10:15:39;;;;;;;14.20;13.10;;;;;;;;;;5000160;28;20212;-44
2021/04/30 10:18:06;;;;;;;16.60;15.30;;;;;;;;;;4983721;28;20273;-44
2021/04/30 10:20:31;;;;;;;15.30;14.10;;;;;;;;;;4979275;28;20192;-44
2021/04/30 10:22:59;;;;;;;17.63;16.13;;;;;;;;;;4992448;28;20607;-44
2021/04/30 10:25:26;;;;;;;16.67;15.37;;;;;;;;;;5004089;28;20385;-44
2021/04/30 10:27:53;;;;;;;17.10;15.70;;;;;;;;;;5000174;28;20932;-44
2021/04/30 10:30:21;;;;;;;18.13;16.53;;;;;;;;;;4998581;28;20591;-45
2021/04/30 10:33:06;;;;;;;13.90;12.67;;;;;;;;;;4998223;28;20601;-44
2021/04/30 10:35:50;;;;;;;14.13;12.93;;;;;;;;;;5002228;28;20650;-45
2021/04/30 10:38:16;;;;;;;16.87;15.43;;;;;;;;;;5007712;28;20627;-45
2021/04/30 10:40:51;;;;;;;14.27;13.17;;;;;;;;;;5003856;28;20572;-45
2021/04/30 10:43:19;;;;;;;16.27;14.87;;;;;;;;;;5001531;28;20603;-45
2021/04/30 10:45:56;;;;;;;16.80;15.40;;;;;;;;;;5002039;28;20586;-45
2021/04/30 10:48:21;;;;;;;16.73;15.33;;;;;;;;;;5001927;28;20961;-45
2021/04/30 10:50:49;;;;;;;17.05;15.70;;;;;;;;;;5003914;28;20779;-45
2021/04/30 10:53:27;;;;;;;17.10;15.60;;;;;;;;;;5006844;28;20200;-45
2021/04/30 10:55:53;;;;;;;16.83;15.50;;;;;;;;;;5003288;28;20651;-45
2021/04/30 10:58:33;;;;;;;15.90;14.60;;;;;;;;;;5001561;28;20603;-44
2021/04/30 11:01:18;;;;;;;16.50;15.20;;;;;;;;;;5001749;28;20191;-44
2021/04/30 11:04:03;;;;;;;16.00;14.60;;;;;;;;;;5001044;28;20603;-44
2021/04/30 11:06:28;;;;;;;15.77;14.50;;;;;;;;;;5006865;28;20705;-44
2021/04/30 11:08:55;;;;;;;16.97;15.60;;;;;;;;;;5004798;28;20706;-44
2021/04/30 11:11:36;;;;;;;16.57;15.17;;;;;;;;;;5001095;28;20260;-44
2021/04/30 11:14:20;;;;;;;16.53;15.23;;;;;;;;;;5001405;28;20590;-45
2021/04/30 11:16:45;;;;;;;16.33;15.03;;;;;;;;;;5002957;28;20648;-45
2021/04/30 11:19:11;;;;;;;16.53;15.20;;;;;;;;;;5006489;28;20605;-45
2021/04/30 11:21:40;;;;;;;15.70;14.40;;;;;;;;;;5006689;28;20185;-44
2021/04/30 11:24:25;;;;;;;17.30;15.80;;;;;;;;;;5003339;28;20176;-44
2021/04/30 11:26:50;;;;;;;18.23;16.70;;;;;;;;;;5000851;28;20597;-44
2021/04/30 11:29:16;;;;;;;17.63;16.13;;;;;;;;;;5002581;28;20601;-45
2021/04/30 11:31:41;;;;;;;15.30;14.10;;;;;;;;;;5002716;28;20227;-45
2021/04/30 11:34:09;;;;;;;16.23;14.93;;;;;;;;;;5006400;28;20180;-44
2021/04/30 11:36:35;;;;;;;17.33;16.03;;;;;;;;;;5003096;28;20204;-45
2021/04/30 11:39:13;;;;;;;18.23;16.73;;;;;;;;;;5000348;28;20597;-44
2021/04/30 11:41:40;;;;;;;16.33;14.93;;;;;;;;;;5002141;28;20981;-45
2021/04/30 11:44:05;;;;;;;19.43;17.93;;;;;;;;;;5002919;28;20650;-44
2021/04/30 11:46:30;;;;;;;18.97;17.33;;;;;;;;;;4998749;28;21054;-44
2021/04/30 11:48:55;;;;;;;20.65;18.95;;;;;;;;;;5002288;28;20190;-44
2021/04/30 11:51:20;;;;;;;18.58;16.85;;;;;;;;;;4999797;28;20238;-44
2021/04/30 11:53:55;;;;;;;19.05;17.65;;;;;;;;;;5000002;28;20183;-45
2021/04/30 11:56:20;;;;;;;18.77;17.33;;;;;;;;;;5003293;28;20203;-45
2021/04/30 11:58:45;;;;;;;17.23;15.73;;;;;;;;;;5004203;28;20685;-45
2021/04/30 12:01:12;;;;;;;18.97;17.43;;;;;;;;;;5005656;28;20186;-44
2021/04/30 12:03:40;;;;;;;18.77;17.40;;;;;;;;;;5005307;28;20180;-44
2021/04/30 12:06:08;;;;;;;19.07;17.23;;;;;;;;;;5001923;28;20627;-45
2021/04/30 12:08:34;;;;;;;20.00;18.40;;;;;;;;;;5001840;28;20776;-44
2021/04/30 12:10:59;;;;;;;19.37;17.93;;;;;;;;;;5001734;28;20600;-45
2021/04/30 12:13:24;;;;;;;19.30;17.90;;;;;;;;;;5003899;28;20655;-45
2021/04/30 12:15:49;;;;;;;21.77;20.17;;;;;;;;;;5003548;28;20272;-45
2021/04/30 12:18:14;;;;;;;21.10;19.40;;;;;;;;;;5002298;28;20649;-45
2021/04/30 12:20:41;;;;;;;23.73;21.77;;;;;;;;;;5003840;28;20244;-45
2021/04/30 12:23:07;;;;;;;21.67;19.83;;;;;;;;;;5001402;28;20188;-44
2021/04/30 12:25:37;;;;;;;21.27;19.47;;;;;;;;;;5000288;28;21292;-45
2021/04/30 12:28:12;;;;;;;18.17;16.77;;;;;;;;;;5005194;28;21168;-45
2021/04/30 12:30:38;;;;;;;18.70;17.20;;;;;;;;;;5003877;28;20584;-46
2021/04/30 12:33:03;;;;;;;18.77;17.17;;;;;;;;;;5000237;28;20688;-45
2021/04/30 12:35:28;;;;;;;18.30;16.80;;;;;;;;;;4999695;28;20232;-45
2021/04/30 12:37:54;;;;;;;17.90;16.50;;;;;;;;;;5001406;28;20646;-45
2021/04/30 12:40:29;;;;;;;20.40;18.80;;;;;;;;;;5005573;28;20176;-45
2021/04/30 12:42:55;;;;;;;20.90;19.20;;;;;;;;;;5001748;28;20171;-45
2021/04/30 12:45:20;;;;;;;21.70;20.00;;;;;;;;;;4999612;28;20942;-46
2021/04/30 12:47:47;;;;;;;23.00;20.97;;;;;;;;;;4999527;28;20623;-44
2021/04/30 12:50:13;;;;;;;22.23;20.43;;;;;;;;;;5001587;28;20181;-45
2021/04/30 12:52:38;;;;;;;20.40;18.67;;;;;;;;;;5001499;28;20606;-45
2021/04/30 12:55:22;;;;;;;20.73;19.13;;;;;;;;;;5004743;28;20942;-48
2021/04/30 12:57:57;;;;;;;23.57;21.47;;;;;;;;;;5001471;28;20223;-46
2021/04/30 13:00:22;;;;;;;21.97;20.07;;;;;;;;;;4979975;28;20639;-45
2021/04/30 13:02:47;;;;;;;20.70;18.98;;;;;;;;;;4980078;28;20599;-45
2021/04/30 13:05:12;;;;;;;20.20;18.60;;;;;;;;;;4983451;28;20194;-45
2021/04/30 13:07:38;;;;;;;18.93;17.43;;;;;;;;;;4992376;28;20215;-45
2021/04/30 13:10:03;;;;;;;18.30;16.90;;;;;;;;;;5001855;28;20208;-46
2021/04/30 13:12:33;;;;;;;20.70;19.00;;;;;;;;;;5004068;28;20230;-45
2021/04/30 13:14:58;;;;;;;19.00;17.30;;;;;;;;;;5001852;28;20181;-45
2021/04/30 13:17:27;;;;;;;20.00;18.30;;;;;;;;;;4996913;28;21290;-45
2021/04/30 13:20:12;;;;;;;20.90;19.10;;;;;;;;;;5004456;28;20170;-45
2021/04/30 13:22:37;;;;;;;17.13;15.83;;;;;;;;;;5004362;28;20595;-45
2021/04/30 13:25:02;;;;;;;19.85;18.02;;;;;;;;;;5000754;28;20602;-45
2021/04/30 13:27:27;;;;;;;19.77;17.97;;;;;;;;;;4998566;28;20176;-45
2021/04/30 13:29:53;;;;;;;17.50;16.00;;;;;;;;;;4998213;28;20840;-45
2021/04/30 13:32:20;;;;;;;18.20;16.70;;;;;;;;;;5002806;28;20176;-45
2021/04/30 13:34:46;;;;;;;17.83;16.33;;;;;;;;;;4999582;28;20628;-45
2021/04/30 13:37:15;;;;;;;16.80;15.40;;;;;;;;;;5000123;28;20637;-45
2021/04/30 13:39:42;;;;;;;18.30;16.70;;;;;;;;;;4999017;28;20677;-45
2021/04/30 13:42:17;;;;;;;19.23;17.63;;;;;;;;;;5001961;28;20954;-45
2021/04/30 13:44:46;;;;;;;20.20;18.40;;;;;;;;;;5001929;28;20598;-45
2021/04/30 13:47:12;;;;;;;18.40;16.90;;;;;;;;;;4997520;28;20634;-45
2021/04/30 13:49:47;;;;;;;19.53;17.93;;;;;;;;;;5000483;28;20649;-44
2021/04/30 13:52:13;;;;;;;19.10;17.50;;;;;;;;;;4999252;28;20189;-44
2021/04/30 13:54:38;;;;;;;19.07;17.33;;;;;;;;;;4997854;28;21004;-44
2021/04/30 13:57:03;;;;;;;19.20;17.63;;;;;;;;;;5000378;28;20240;-45
2021/04/30 13:59:32;;;;;;;17.73;16.03;;;;;;;;;;5003379;28;20221;-45
2021/04/30 14:01:58;;;;;;;18.57;17.07;;;;;;;;;;4999470;28;20204;-45
2021/04/30 14:04:23;;;;;;;18.20;16.60;;;;;;;;;;4997578;28;20571;-44
2021/04/30 14:06:48;;;;;;;19.73;18.10;;;;;;;;;;4999792;28;20182;-45
2021/04/30 14:09:13;;;;;;;20.57;18.87;;;;;;;;;;5004697;28;20542;-44
2021/04/30 14:11:38;;;;;;;18.05;16.45;;;;;;;;;;5007285;28;20971;-44